createdAt,value
2018-03-25T00:00:03.256Z,83
2018-03-25T00:00:15.407Z,83
2018-03-25T00:00:27.571Z,83
2018-03-25T00:00:39.715Z,83
2018-03-25T00:00:51.910Z,83
2018-03-25T00:01:04.059Z,83
2018-03-25T00:01:16.174Z,83
2018-03-25T00:01:28.319Z,83
2018-03-25T00:01:40.475Z,83
2018-03-25T00:01:52.623Z,83
2018-03-25T00:02:04.750Z,83
2018-03-25T00:02:16.884Z,83
2018-03-25T00:02:29.132Z,83
2018-03-25T00:02:41.272Z,83
2018-03-25T00:02:53.422Z,83
2018-03-25T00:03:05.548Z,83
2018-03-25T00:03:17.685Z,83
2018-03-25T00:03:29.876Z,83
2018-03-25T00:03:42.007Z,83
2018-03-25T00:03:54.156Z,83
2018-03-25T00:04:06.291Z,83
2018-03-25T00:04:18.428Z,83
2018-03-25T00:04:30.589Z,83
2018-03-25T00:04:42.754Z,83
2018-03-25T00:04:54.900Z,83
2018-03-25T00:05:07.081Z,83
2018-03-25T00:05:19.223Z,83
2018-03-25T00:05:31.364Z,83
2018-03-25T00:05:43.516Z,83
2018-03-25T00:05:55.655Z,83
2018-03-25T00:06:07.812Z,83
2018-03-25T00:06:19.959Z,83
2018-03-25T00:06:32.103Z,83
2018-03-25T00:06:44.240Z,83
2018-03-25T00:06:56.425Z,83
2018-03-25T00:07:08.563Z,83
2018-03-25T00:07:20.715Z,83
2018-03-25T00:07:32.862Z,83
2018-03-25T00:07:45.000Z,83
2018-03-25T00:07:57.127Z,83
2018-03-25T00:08:09.290Z,83
2018-03-25T00:08:21.554Z,83
2018-03-25T00:08:33.684Z,83
2018-03-25T00:08:45.810Z,83
2018-03-25T00:08:57.936Z,83
2018-03-25T00:09:10.068Z,83
2018-03-25T00:09:22.282Z,83
2018-03-25T00:09:34.404Z,83
2018-03-25T00:09:46.609Z,83
2018-03-25T00:09:58.741Z,83
2018-03-25T00:10:10.860Z,83
2018-03-25T00:10:23.074Z,83
2018-03-25T00:10:35.192Z,83
2018-03-25T00:10:47.308Z,83
2018-03-25T00:10:59.434Z,83
2018-03-25T00:11:11.586Z,83
2018-03-25T00:11:23.715Z,83
2018-03-25T00:11:35.873Z,83
2018-03-25T00:11:48.024Z,83
2018-03-25T00:12:00.149Z,83
2018-03-25T00:12:12.346Z,83
2018-03-25T00:12:24.558Z,83
2018-03-25T00:12:36.699Z,83
2018-03-25T00:12:48.960Z,83
2018-03-25T00:13:01.150Z,83
2018-03-25T00:13:13.292Z,83
2018-03-25T00:13:25.809Z,83
2018-03-25T00:13:37.977Z,83
2018-03-25T00:13:50.103Z,83
2018-03-25T00:14:02.289Z,83
2018-03-25T00:14:14.427Z,83
2018-03-25T00:14:26.628Z,83
2018-03-25T00:14:38.778Z,83
2018-03-25T00:14:50.904Z,83
2018-03-25T00:15:03.047Z,83
2018-03-25T00:15:15.191Z,83
2018-03-25T00:15:27.352Z,83
2018-03-25T00:15:39.544Z,83
2018-03-25T00:15:51.666Z,83
2018-03-25T00:16:03.823Z,83
2018-03-25T00:16:15.953Z,83
2018-03-25T00:16:28.083Z,83
2018-03-25T00:16:40.227Z,83
2018-03-25T00:16:52.365Z,83
2018-03-25T00:17:04.546Z,83
2018-03-25T00:17:16.668Z,83
2018-03-25T00:17:29.159Z,83
2018-03-25T00:17:41.302Z,83
2018-03-25T00:17:53.472Z,83
2018-03-25T00:18:05.652Z,83
2018-03-25T00:18:17.795Z,83
2018-03-25T00:18:29.933Z,83
2018-03-25T00:18:42.072Z,83
2018-03-25T00:18:54.220Z,83
2018-03-25T00:19:06.370Z,83
2018-03-25T00:19:18.523Z,83
2018-03-25T00:19:30.670Z,83
2018-03-25T00:19:42.839Z,83
2018-03-25T00:19:54.971Z,83
2018-03-25T00:20:07.120Z,83
2018-03-25T00:20:19.257Z,83
2018-03-25T00:20:31.404Z,83
2018-03-25T00:20:43.547Z,83
2018-03-25T00:20:55.697Z,83
2018-03-25T00:21:07.836Z,83
2018-03-25T00:21:19.973Z,83
2018-03-25T00:21:32.103Z,83
2018-03-25T00:21:44.247Z,83
2018-03-25T00:21:56.383Z,83
2018-03-25T00:22:08.526Z,83
2018-03-25T00:22:20.666Z,83
2018-03-25T00:22:33.073Z,83
2018-03-25T00:22:45.211Z,83
2018-03-25T00:22:57.365Z,83
2018-03-25T00:23:09.517Z,83
2018-03-25T00:23:21.649Z,83
2018-03-25T00:23:33.780Z,83
2018-03-25T00:23:45.902Z,83
2018-03-25T00:23:58.047Z,83
2018-03-25T00:24:10.176Z,83
2018-03-25T00:24:22.329Z,83
2018-03-25T00:24:34.454Z,83
2018-03-25T00:24:46.584Z,83
2018-03-25T00:24:58.722Z,83
2018-03-25T00:25:10.864Z,83
2018-03-25T00:25:23.004Z,83
2018-03-25T00:25:35.134Z,83
2018-03-25T00:25:47.294Z,83
2018-03-25T00:25:59.431Z,83
2018-03-25T00:26:11.565Z,83
2018-03-25T00:26:23.681Z,83
2018-03-25T00:26:35.812Z,83
2018-03-25T00:26:47.958Z,83
2018-03-25T00:27:00.096Z,83
2018-03-25T00:27:12.245Z,83
2018-03-25T00:27:24.471Z,83
2018-03-25T00:27:36.596Z,83
2018-03-25T00:27:49.041Z,83
2018-03-25T00:28:01.177Z,83
2018-03-25T00:28:13.371Z,83
2018-03-25T00:28:25.487Z,83
2018-03-25T00:28:37.607Z,83
2018-03-25T00:28:49.745Z,83
2018-03-25T00:29:01.872Z,83
2018-03-25T00:29:14.004Z,83
2018-03-25T00:29:26.146Z,83
2018-03-25T00:29:38.278Z,83
2018-03-25T00:29:50.420Z,83
2018-03-25T00:30:02.811Z,83
2018-03-25T00:30:15.017Z,83
2018-03-25T00:30:27.139Z,83
2018-03-25T00:30:39.274Z,83
2018-03-25T00:30:51.430Z,83
2018-03-25T00:31:03.564Z,83
2018-03-25T00:31:15.737Z,83
2018-03-25T00:31:27.854Z,83
2018-03-25T00:31:40.053Z,83
2018-03-25T00:31:52.190Z,83
2018-03-25T00:32:04.364Z,83
2018-03-25T00:32:16.507Z,83
2018-03-25T00:32:28.627Z,83
2018-03-25T00:32:40.774Z,83
2018-03-25T00:32:52.998Z,83
2018-03-25T00:33:05.165Z,83
2018-03-25T00:33:17.643Z,83
2018-03-25T00:33:29.986Z,83
2018-03-25T00:33:42.114Z,83
2018-03-25T00:33:54.251Z,83
2018-03-25T00:34:06.399Z,83
2018-03-25T00:34:18.535Z,83
2018-03-25T00:34:30.728Z,83
2018-03-25T00:34:42.855Z,83
2018-03-25T00:34:55.013Z,83
2018-03-25T00:35:07.147Z,83
2018-03-25T00:35:19.278Z,83
2018-03-25T00:35:31.436Z,83
2018-03-25T00:35:43.580Z,83
2018-03-25T00:35:55.715Z,83
2018-03-25T00:36:07.857Z,83
2018-03-25T00:36:19.982Z,83
2018-03-25T00:36:32.123Z,83
2018-03-25T00:36:44.254Z,83
2018-03-25T00:36:56.434Z,83
2018-03-25T00:37:08.562Z,83
2018-03-25T00:37:20.719Z,83
2018-03-25T00:37:33.081Z,83
2018-03-25T00:37:45.238Z,83
2018-03-25T00:37:57.403Z,83
2018-03-25T00:38:09.564Z,83
2018-03-25T00:38:21.693Z,83
2018-03-25T00:38:33.833Z,83
2018-03-25T00:38:45.956Z,83
2018-03-25T00:38:58.154Z,83
2018-03-25T00:39:10.293Z,83
2018-03-25T00:39:22.420Z,83
2018-03-25T00:39:34.597Z,83
2018-03-25T00:39:46.742Z,83
2018-03-25T00:39:58.884Z,83
2018-03-25T00:40:11.033Z,83
2018-03-25T00:40:23.191Z,83
2018-03-25T00:40:35.330Z,83
2018-03-25T00:40:47.469Z,83
2018-03-25T00:40:59.651Z,83
2018-03-25T00:41:11.941Z,83
2018-03-25T00:41:24.117Z,83
2018-03-25T00:41:36.270Z,83
2018-03-25T00:41:48.393Z,83
2018-03-25T00:42:00.518Z,83
2018-03-25T00:42:12.672Z,83
2018-03-25T00:42:25.149Z,83
2018-03-25T00:42:37.472Z,83
2018-03-25T00:42:49.613Z,83
2018-03-25T00:43:01.755Z,83
2018-03-25T00:43:13.921Z,83
2018-03-25T00:43:26.068Z,83
2018-03-25T00:43:38.337Z,83
2018-03-25T00:43:50.471Z,83
2018-03-25T00:44:02.609Z,83
2018-03-25T00:44:14.736Z,83
2018-03-25T00:44:26.911Z,83
2018-03-25T00:44:39.062Z,83
2018-03-25T00:44:51.207Z,83
2018-03-25T00:45:03.342Z,83
2018-03-25T00:45:15.490Z,83
2018-03-25T00:45:27.647Z,83
2018-03-25T00:45:39.788Z,83
2018-03-25T00:45:51.948Z,83
2018-03-25T00:46:04.078Z,83
2018-03-25T00:46:16.254Z,83
2018-03-25T00:46:28.388Z,83
2018-03-25T00:46:40.563Z,83
2018-03-25T00:46:52.688Z,83
2018-03-25T00:47:04.831Z,83
2018-03-25T00:47:17.018Z,83
2018-03-25T00:47:29.150Z,83
2018-03-25T00:47:41.278Z,83
2018-03-25T00:47:53.614Z,83
2018-03-25T00:48:05.768Z,83
2018-03-25T00:48:17.960Z,83
2018-03-25T00:48:30.099Z,83
2018-03-25T00:48:42.234Z,83
2018-03-25T00:48:54.377Z,83
2018-03-25T00:49:06.502Z,83
2018-03-25T00:49:18.625Z,83
2018-03-25T00:49:30.797Z,83
2018-03-25T00:49:42.971Z,83
2018-03-25T00:49:55.130Z,83
2018-03-25T00:50:07.271Z,83
2018-03-25T00:50:19.394Z,83
2018-03-25T00:50:31.546Z,83
2018-03-25T00:50:43.675Z,83
2018-03-25T00:50:55.802Z,83
2018-03-25T00:51:07.982Z,83
2018-03-25T00:51:20.126Z,83
2018-03-25T00:51:32.265Z,83
2018-03-25T00:51:44.395Z,83
2018-03-25T00:51:56.521Z,83
2018-03-25T00:52:08.657Z,83
2018-03-25T00:52:20.960Z,83
2018-03-25T00:52:33.119Z,83
2018-03-25T00:52:45.248Z,83
2018-03-25T00:52:57.645Z,86
2018-03-25T00:53:09.780Z,86
2018-03-25T00:53:21.927Z,95
2018-03-25T00:53:34.059Z,142
2018-03-25T00:53:46.180Z,154
2018-03-25T00:53:58.322Z,154
2018-03-25T00:54:10.457Z,152
2018-03-25T00:54:22.575Z,155
2018-03-25T00:54:34.701Z,138
2018-03-25T00:54:46.855Z,146
2018-03-25T00:54:59.211Z,153
2018-03-25T00:55:11.352Z,143
2018-03-25T00:55:23.483Z,155
2018-03-25T00:55:35.597Z,143
2018-03-25T00:55:47.732Z,144
2018-03-25T00:55:59.869Z,144
2018-03-25T00:56:12.169Z,144
2018-03-25T00:56:24.362Z,144
2018-03-25T00:56:36.498Z,144
2018-03-25T00:56:48.637Z,144
2018-03-25T00:57:00.811Z,144
2018-03-25T00:57:12.974Z,144
2018-03-25T00:57:25.106Z,144
2018-03-25T00:57:37.333Z,144
2018-03-25T00:57:49.469Z,144
2018-03-25T00:58:01.604Z,144
2018-03-25T00:58:13.749Z,144
2018-03-25T00:58:25.868Z,150
2018-03-25T00:58:38.009Z,144
2018-03-25T00:58:50.137Z,147
2018-03-25T00:59:02.277Z,143
2018-03-25T00:59:14.421Z,156
2018-03-25T00:59:26.594Z,148
2018-03-25T00:59:38.735Z,142
2018-03-25T00:59:51.139Z,146
2018-03-25T01:00:03.275Z,148
2018-03-25T01:00:15.459Z,148
2018-03-25T01:00:27.620Z,150
2018-03-25T01:00:39.751Z,151
2018-03-25T01:00:51.873Z,156
2018-03-25T01:01:04.014Z,156
2018-03-25T01:01:16.153Z,153
2018-03-25T01:01:28.273Z,153
2018-03-25T01:01:40.388Z,153
2018-03-25T01:01:52.520Z,153
2018-03-25T01:02:04.663Z,153
2018-03-25T01:02:16.804Z,153
2018-03-25T01:02:29.062Z,153
2018-03-25T01:02:41.249Z,155
2018-03-25T01:02:53.396Z,142
2018-03-25T01:03:05.540Z,142
2018-03-25T01:03:17.675Z,143
2018-03-25T01:03:29.793Z,143
2018-03-25T01:03:41.935Z,143
2018-03-25T01:03:54.061Z,143
2018-03-25T01:04:06.222Z,150
2018-03-25T01:04:18.355Z,150
2018-03-25T01:04:30.490Z,140
2018-03-25T01:04:42.644Z,140
2018-03-25T01:04:54.816Z,140
2018-03-25T01:05:06.943Z,140
2018-03-25T01:05:19.068Z,140
2018-03-25T01:05:31.199Z,140
2018-03-25T01:05:43.334Z,140
2018-03-25T01:05:55.464Z,140
2018-03-25T01:06:07.611Z,140
2018-03-25T01:06:19.734Z,140
2018-03-25T01:06:31.901Z,140
2018-03-25T01:06:44.025Z,140
2018-03-25T01:06:56.158Z,140
2018-03-25T01:07:08.336Z,140
2018-03-25T01:07:20.475Z,140
2018-03-25T01:07:32.638Z,140
2018-03-25T01:07:45.288Z,140
2018-03-25T01:07:57.410Z,140
2018-03-25T01:08:09.560Z,140
2018-03-25T01:08:21.684Z,140
2018-03-25T01:08:33.819Z,140
2018-03-25T01:08:45.957Z,140
2018-03-25T01:08:58.094Z,137
2018-03-25T01:09:10.238Z,137
2018-03-25T01:09:22.369Z,136
2018-03-25T01:09:34.522Z,136
2018-03-25T01:09:46.655Z,137
2018-03-25T01:09:58.794Z,137
2018-03-25T01:10:10.938Z,137
2018-03-25T01:10:23.075Z,137
2018-03-25T01:10:35.222Z,137
2018-03-25T01:10:47.378Z,137
2018-03-25T01:10:59.516Z,137
2018-03-25T01:11:11.650Z,137
2018-03-25T01:11:23.772Z,137
2018-03-25T01:11:35.896Z,137
2018-03-25T01:11:48.070Z,137
2018-03-25T01:12:00.206Z,137
2018-03-25T01:12:12.339Z,137
2018-03-25T01:12:24.592Z,137
2018-03-25T01:12:36.722Z,136
2018-03-25T01:12:48.969Z,136
2018-03-25T01:13:01.095Z,136
2018-03-25T01:13:13.234Z,137
2018-03-25T01:13:25.383Z,137
2018-03-25T01:13:37.511Z,137
2018-03-25T01:13:49.712Z,137
2018-03-25T01:14:01.886Z,137
2018-03-25T01:14:14.039Z,137
2018-03-25T01:14:26.172Z,137
2018-03-25T01:14:38.349Z,137
2018-03-25T01:14:50.491Z,137
2018-03-25T01:15:02.652Z,137
2018-03-25T01:15:14.791Z,137
2018-03-25T01:15:27.083Z,137
2018-03-25T01:15:39.211Z,137
2018-03-25T01:15:51.372Z,137
2018-03-25T01:16:03.502Z,137
2018-03-25T01:16:15.669Z,137
2018-03-25T01:16:27.803Z,137
2018-03-25T01:16:39.935Z,137
2018-03-25T01:16:52.061Z,137
2018-03-25T01:17:04.286Z,137
2018-03-25T01:17:16.402Z,137
2018-03-25T01:17:28.536Z,137
2018-03-25T01:17:40.676Z,137
2018-03-25T01:17:52.856Z,137
2018-03-25T01:18:04.992Z,137
2018-03-25T01:18:17.146Z,137
2018-03-25T01:18:29.308Z,137
2018-03-25T01:18:41.484Z,137
2018-03-25T01:18:53.619Z,137
2018-03-25T01:19:05.753Z,137
2018-03-25T01:19:17.910Z,137
2018-03-25T01:19:30.049Z,137
2018-03-25T01:19:42.265Z,137
2018-03-25T01:19:54.378Z,137
2018-03-25T01:20:06.507Z,137
2018-03-25T01:20:18.685Z,137
2018-03-25T01:20:30.842Z,137
2018-03-25T01:20:42.999Z,137
2018-03-25T01:20:55.139Z,137
2018-03-25T01:21:07.307Z,137
2018-03-25T01:21:19.447Z,137
2018-03-25T01:21:31.589Z,137
2018-03-25T01:21:43.728Z,137
2018-03-25T01:21:55.886Z,137
2018-03-25T01:22:08.172Z,137
2018-03-25T01:22:20.290Z,137
2018-03-25T01:22:32.407Z,137
2018-03-25T01:22:44.538Z,137
2018-03-25T01:22:56.671Z,137
2018-03-25T01:23:08.833Z,137
2018-03-25T01:23:20.976Z,137
2018-03-25T01:23:33.143Z,137
2018-03-25T01:23:45.280Z,137
2018-03-25T01:23:57.421Z,137
2018-03-25T01:24:09.590Z,137
2018-03-25T01:24:21.745Z,137
2018-03-25T01:24:33.874Z,137
2018-03-25T01:24:46.058Z,137
2018-03-25T01:24:58.227Z,137
2018-03-25T01:25:10.372Z,137
2018-03-25T01:25:22.497Z,137
2018-03-25T01:25:34.637Z,137
2018-03-25T01:25:46.769Z,137
2018-03-25T01:25:58.883Z,137
2018-03-25T01:26:11.047Z,137
2018-03-25T01:26:23.217Z,137
2018-03-25T01:26:35.364Z,137
2018-03-25T01:26:47.526Z,137
2018-03-25T01:26:59.648Z,137
2018-03-25T01:27:11.774Z,137
2018-03-25T01:27:23.909Z,137
2018-03-25T01:27:36.064Z,137
2018-03-25T01:27:48.209Z,137
2018-03-25T01:28:00.354Z,137
2018-03-25T01:28:12.540Z,137
2018-03-25T01:28:24.657Z,137
2018-03-25T01:28:36.795Z,137
2018-03-25T01:28:48.979Z,137
2018-03-25T01:29:01.171Z,137
2018-03-25T01:29:13.321Z,137
2018-03-25T01:29:25.549Z,137
2018-03-25T01:29:37.668Z,137
2018-03-25T01:29:49.826Z,137
2018-03-25T01:30:01.942Z,137
2018-03-25T01:30:14.128Z,137
2018-03-25T01:30:26.266Z,137
2018-03-25T01:30:38.455Z,137
2018-03-25T01:30:50.611Z,137
2018-03-25T01:31:02.740Z,137
2018-03-25T01:31:14.893Z,137
2018-03-25T01:31:27.038Z,137
2018-03-25T01:31:39.181Z,137
2018-03-25T01:31:51.318Z,137
2018-03-25T01:32:03.454Z,137
2018-03-25T01:32:15.579Z,137
2018-03-25T01:32:27.715Z,137
2018-03-25T01:32:40.185Z,137
2018-03-25T01:32:52.326Z,137
2018-03-25T01:33:04.470Z,137
2018-03-25T01:33:16.588Z,137
2018-03-25T01:33:28.712Z,137
2018-03-25T01:33:40.848Z,137
2018-03-25T01:33:52.973Z,137
2018-03-25T01:34:05.118Z,137
2018-03-25T01:34:17.257Z,137
2018-03-25T01:34:29.554Z,136
2018-03-25T01:34:41.662Z,136
2018-03-25T01:34:53.772Z,136
2018-03-25T01:35:05.895Z,136
2018-03-25T01:35:18.032Z,136
2018-03-25T01:35:30.145Z,136
2018-03-25T01:35:42.297Z,136
2018-03-25T01:35:54.403Z,137
2018-03-25T01:36:06.519Z,136
2018-03-25T01:36:18.698Z,136
2018-03-25T01:36:30.882Z,136
2018-03-25T01:36:43.074Z,136
2018-03-25T01:36:55.232Z,136
2018-03-25T01:37:07.395Z,136
2018-03-25T01:37:19.519Z,137
2018-03-25T01:37:31.789Z,136
2018-03-25T01:37:43.910Z,137
2018-03-25T01:37:56.031Z,136
2018-03-25T01:38:08.150Z,136
2018-03-25T01:38:20.271Z,136
2018-03-25T01:38:32.397Z,136
2018-03-25T01:38:44.514Z,136
2018-03-25T01:38:56.628Z,136
2018-03-25T01:39:08.749Z,136
2018-03-25T01:39:20.861Z,136
2018-03-25T01:39:33.023Z,136
2018-03-25T01:39:45.192Z,136
2018-03-25T01:39:57.314Z,136
2018-03-25T01:40:09.452Z,136
2018-03-25T01:40:21.594Z,136
2018-03-25T01:40:33.729Z,136
2018-03-25T01:40:45.874Z,136
2018-03-25T01:40:57.986Z,137
2018-03-25T01:41:10.346Z,136
2018-03-25T01:41:22.508Z,136
2018-03-25T01:41:34.666Z,136
2018-03-25T01:41:46.803Z,136
2018-03-25T01:41:58.939Z,136
2018-03-25T01:42:11.070Z,137
2018-03-25T01:42:23.197Z,137
2018-03-25T01:42:35.318Z,137
2018-03-25T01:42:47.437Z,137
2018-03-25T01:42:59.549Z,137
2018-03-25T01:43:11.681Z,137
2018-03-25T01:43:23.807Z,137
2018-03-25T01:43:35.941Z,136
2018-03-25T01:43:48.121Z,137
2018-03-25T01:44:00.247Z,137
2018-03-25T01:44:12.379Z,137
2018-03-25T01:44:24.500Z,136
2018-03-25T01:44:36.668Z,136
2018-03-25T01:44:48.792Z,136
2018-03-25T01:45:00.913Z,136
2018-03-25T01:45:13.030Z,136
2018-03-25T01:45:25.148Z,136
2018-03-25T01:45:37.258Z,136
2018-03-25T01:45:49.387Z,136
2018-03-25T01:46:01.518Z,136
2018-03-25T01:46:13.690Z,136
2018-03-25T01:46:25.831Z,136
2018-03-25T01:46:38.001Z,136
2018-03-25T01:46:50.131Z,136
2018-03-25T01:47:02.247Z,136
2018-03-25T01:47:14.373Z,136
2018-03-25T01:47:26.494Z,136
2018-03-25T01:47:38.627Z,136
2018-03-25T01:47:50.752Z,136
2018-03-25T01:48:03.008Z,136
2018-03-25T01:48:15.165Z,136
2018-03-25T01:48:27.298Z,136
2018-03-25T01:48:39.418Z,136
2018-03-25T01:48:51.548Z,136
2018-03-25T01:49:03.665Z,136
2018-03-25T01:49:15.827Z,136
2018-03-25T01:49:27.965Z,136
2018-03-25T01:49:40.091Z,136
2018-03-25T01:49:52.198Z,136
2018-03-25T01:50:04.317Z,136
2018-03-25T01:50:16.445Z,136
2018-03-25T01:50:28.562Z,136
2018-03-25T01:50:40.671Z,137
2018-03-25T01:50:52.777Z,137
2018-03-25T01:51:04.889Z,136
2018-03-25T01:51:17.004Z,136
2018-03-25T01:51:29.116Z,136
2018-03-25T01:51:41.225Z,136
2018-03-25T01:51:53.347Z,136
2018-03-25T01:52:05.475Z,136
2018-03-25T01:52:17.589Z,136
2018-03-25T01:52:29.832Z,136
2018-03-25T01:52:41.970Z,136
2018-03-25T01:52:54.126Z,136
2018-03-25T01:53:06.246Z,136
2018-03-25T01:53:18.382Z,136
2018-03-25T01:53:30.544Z,137
2018-03-25T01:53:42.806Z,137
2018-03-25T01:53:54.931Z,137
2018-03-25T01:54:07.095Z,137
2018-03-25T01:54:19.239Z,137
2018-03-25T01:54:31.428Z,137
2018-03-25T01:54:43.546Z,137
2018-03-25T01:54:55.796Z,137
2018-03-25T01:55:07.920Z,137
2018-03-25T01:55:20.092Z,137
2018-03-25T01:55:32.229Z,137
2018-03-25T01:55:44.357Z,137
2018-03-25T01:55:56.488Z,137
2018-03-25T01:56:08.598Z,137
2018-03-25T01:56:20.721Z,137
2018-03-25T01:56:32.847Z,137
2018-03-25T01:56:45.002Z,137
2018-03-25T01:56:57.126Z,136
2018-03-25T01:57:09.253Z,136
2018-03-25T01:57:21.381Z,136
2018-03-25T01:57:33.497Z,136
2018-03-25T01:57:45.638Z,136
2018-03-25T01:57:57.757Z,136
2018-03-25T01:58:09.892Z,136
2018-03-25T01:58:22.069Z,136
2018-03-25T01:58:34.196Z,136
2018-03-25T01:58:46.317Z,136
2018-03-25T01:58:58.434Z,136
2018-03-25T01:59:10.643Z,137
2018-03-25T01:59:22.804Z,137
2018-03-25T01:59:34.928Z,136
2018-03-25T01:59:47.442Z,136
2018-03-25T01:59:59.728Z,137
2018-03-25T02:00:11.966Z,136
2018-03-25T02:00:24.218Z,136
2018-03-25T02:00:36.357Z,136
2018-03-25T02:00:48.480Z,136
2018-03-25T02:01:00.626Z,137
2018-03-25T02:01:12.856Z,136
2018-03-25T02:01:24.965Z,136
2018-03-25T02:01:37.090Z,137
2018-03-25T02:01:49.218Z,136
2018-03-25T02:02:01.346Z,137
2018-03-25T02:02:13.493Z,136
2018-03-25T02:02:25.806Z,136
2018-03-25T02:02:37.924Z,136
2018-03-25T02:02:50.122Z,136
2018-03-25T02:03:02.251Z,136
2018-03-25T02:03:14.388Z,136
2018-03-25T02:03:26.550Z,136
2018-03-25T02:03:38.665Z,136
2018-03-25T02:03:50.790Z,137
2018-03-25T02:04:02.948Z,136
2018-03-25T02:04:15.075Z,136
2018-03-25T02:04:27.194Z,136
2018-03-25T02:04:39.332Z,136
2018-03-25T02:04:51.457Z,136
2018-03-25T02:05:03.600Z,136
2018-03-25T02:05:15.723Z,136
2018-03-25T02:05:27.838Z,136
2018-03-25T02:05:39.951Z,136
2018-03-25T02:05:52.128Z,136
2018-03-25T02:06:04.256Z,136
2018-03-25T02:06:16.400Z,136
2018-03-25T02:06:28.564Z,136
2018-03-25T02:06:40.678Z,136
2018-03-25T02:06:52.827Z,136
2018-03-25T02:07:04.964Z,136
2018-03-25T02:07:17.170Z,136
2018-03-25T02:07:29.388Z,136
2018-03-25T02:07:41.532Z,137
2018-03-25T02:07:53.657Z,136
2018-03-25T02:08:05.794Z,136
2018-03-25T02:08:17.936Z,136
2018-03-25T02:08:30.092Z,137
2018-03-25T02:08:42.283Z,136
2018-03-25T02:08:54.424Z,136
2018-03-25T02:09:06.546Z,136
2018-03-25T02:09:18.680Z,136
2018-03-25T02:09:30.890Z,136
2018-03-25T02:09:43.017Z,136
2018-03-25T02:09:55.169Z,136
2018-03-25T02:10:07.364Z,136
2018-03-25T02:10:19.509Z,136
2018-03-25T02:10:31.673Z,136
2018-03-25T02:10:43.797Z,136
2018-03-25T02:10:55.914Z,136
2018-03-25T02:11:08.038Z,136
2018-03-25T02:11:20.173Z,136
2018-03-25T02:11:32.291Z,136
2018-03-25T02:11:44.414Z,136
2018-03-25T02:11:56.562Z,136
2018-03-25T02:12:08.686Z,136
2018-03-25T02:12:20.820Z,136
2018-03-25T02:12:33.006Z,136
2018-03-25T02:12:45.123Z,136
2018-03-25T02:12:57.345Z,136
2018-03-25T02:13:09.485Z,136
2018-03-25T02:13:21.627Z,136
2018-03-25T02:13:33.775Z,136
2018-03-25T02:13:45.931Z,136
2018-03-25T02:13:58.082Z,136
2018-03-25T02:14:10.378Z,136
2018-03-25T02:14:22.552Z,136
2018-03-25T02:14:34.723Z,136
2018-03-25T02:14:46.859Z,136
2018-03-25T02:14:58.997Z,136
2018-03-25T02:15:11.132Z,136
2018-03-25T02:15:23.264Z,136
2018-03-25T02:15:35.385Z,136
2018-03-25T02:15:47.519Z,136
2018-03-25T02:15:59.661Z,136
2018-03-25T02:16:11.800Z,136
2018-03-25T02:16:24.027Z,136
2018-03-25T02:16:36.148Z,136
2018-03-25T02:16:48.281Z,136
2018-03-25T02:17:00.425Z,136
2018-03-25T02:17:12.574Z,136
2018-03-25T02:17:24.717Z,137
2018-03-25T02:17:36.864Z,137
2018-03-25T02:17:49.053Z,137
2018-03-25T02:18:01.196Z,137
2018-03-25T02:18:13.331Z,137
2018-03-25T02:18:25.467Z,137
2018-03-25T02:18:37.593Z,137
2018-03-25T02:18:49.791Z,137
2018-03-25T02:19:01.920Z,137
2018-03-25T02:19:14.098Z,137
2018-03-25T02:19:26.234Z,137
2018-03-25T02:19:38.370Z,136
2018-03-25T02:19:50.514Z,136
2018-03-25T02:20:02.647Z,136
2018-03-25T02:20:14.784Z,136
2018-03-25T02:20:26.942Z,136
2018-03-25T02:20:39.083Z,136
2018-03-25T02:20:51.219Z,136
2018-03-25T02:21:03.358Z,136
2018-03-25T02:21:15.503Z,136
2018-03-25T02:21:27.634Z,136
2018-03-25T02:21:39.767Z,136
2018-03-25T02:21:51.902Z,136
2018-03-25T02:22:04.050Z,136
2018-03-25T02:22:16.181Z,136
2018-03-25T02:22:28.322Z,136
2018-03-25T02:22:40.489Z,136
2018-03-25T02:22:52.616Z,136
2018-03-25T02:23:04.749Z,136
2018-03-25T02:23:16.876Z,136
2018-03-25T02:23:29.000Z,136
2018-03-25T02:23:41.118Z,136
2018-03-25T02:23:53.300Z,136
2018-03-25T02:24:05.444Z,136
2018-03-25T02:24:17.561Z,136
2018-03-25T02:24:29.694Z,136
2018-03-25T02:24:41.859Z,136
2018-03-25T02:24:53.988Z,136
2018-03-25T02:25:06.145Z,136
2018-03-25T02:25:18.267Z,136
2018-03-25T02:25:30.398Z,136
2018-03-25T02:25:42.539Z,136
2018-03-25T02:25:54.676Z,136
2018-03-25T02:26:06.875Z,136
2018-03-25T02:26:19.009Z,136
2018-03-25T02:26:31.152Z,136
2018-03-25T02:26:43.333Z,136
2018-03-25T02:26:55.456Z,136
2018-03-25T02:27:07.575Z,136
2018-03-25T02:27:19.764Z,136
2018-03-25T02:27:31.915Z,136
2018-03-25T02:27:44.079Z,136
2018-03-25T02:27:56.374Z,136
2018-03-25T02:28:08.682Z,136
2018-03-25T02:28:20.830Z,136
2018-03-25T02:28:33.026Z,136
2018-03-25T02:28:45.214Z,136
2018-03-25T02:28:57.346Z,136
2018-03-25T02:29:09.553Z,136
2018-03-25T02:29:21.756Z,136
2018-03-25T02:29:33.894Z,136
2018-03-25T02:29:46.028Z,136
2018-03-25T02:29:58.154Z,136
2018-03-25T02:30:10.336Z,136
2018-03-25T02:30:22.522Z,136
2018-03-25T02:30:34.669Z,136
2018-03-25T02:30:46.851Z,136
2018-03-25T02:30:59.013Z,136
2018-03-25T02:31:11.168Z,136
2018-03-25T02:31:23.319Z,136
2018-03-25T02:31:35.499Z,136
2018-03-25T02:31:47.656Z,136
2018-03-25T02:31:59.818Z,136
2018-03-25T02:32:12.011Z,136
2018-03-25T02:32:24.175Z,136
2018-03-25T02:32:36.332Z,136
2018-03-25T02:32:48.481Z,136
2018-03-25T02:33:00.667Z,136
2018-03-25T02:33:12.846Z,136
2018-03-25T02:33:25.052Z,136
2018-03-25T02:33:37.223Z,136
2018-03-25T02:33:49.401Z,136
2018-03-25T02:34:01.551Z,136
2018-03-25T02:34:13.866Z,136
2018-03-25T02:34:26.074Z,136
2018-03-25T02:34:38.339Z,136
2018-03-25T02:34:50.545Z,136
2018-03-25T02:35:02.737Z,136
2018-03-25T02:35:14.899Z,136
2018-03-25T02:35:27.073Z,136
2018-03-25T02:35:39.356Z,136
2018-03-25T02:35:51.538Z,136
2018-03-25T02:36:03.716Z,136
2018-03-25T02:36:15.936Z,136
2018-03-25T02:36:28.123Z,136
2018-03-25T02:36:40.362Z,136
2018-03-25T02:36:52.497Z,136
2018-03-25T02:37:04.657Z,136
2018-03-25T02:37:16.834Z,136
2018-03-25T02:37:29.083Z,136
2018-03-25T02:37:41.262Z,136
2018-03-25T02:37:53.462Z,136
2018-03-25T02:38:05.637Z,136
2018-03-25T02:38:17.810Z,136
2018-03-25T02:38:30.019Z,136
2018-03-25T02:38:42.205Z,136
2018-03-25T02:38:54.403Z,136
2018-03-25T02:39:06.573Z,136
2018-03-25T02:39:18.720Z,136
2018-03-25T02:39:31.345Z,136
2018-03-25T02:39:43.557Z,136
2018-03-25T02:39:55.722Z,136
2018-03-25T02:40:07.865Z,136
2018-03-25T02:40:20.067Z,136
2018-03-25T02:40:32.226Z,136
2018-03-25T02:40:44.405Z,136
2018-03-25T02:40:56.572Z,136
2018-03-25T02:41:08.914Z,136
2018-03-25T02:41:21.064Z,136
2018-03-25T02:41:33.261Z,136
2018-03-25T02:41:45.411Z,136
2018-03-25T02:41:57.585Z,136
2018-03-25T02:42:09.759Z,136
2018-03-25T02:42:21.902Z,136
2018-03-25T02:42:34.036Z,136
2018-03-25T02:42:46.187Z,136
2018-03-25T02:42:58.329Z,136
2018-03-25T02:43:10.542Z,136
2018-03-25T02:43:22.750Z,136
2018-03-25T02:43:34.909Z,136
2018-03-25T02:43:47.047Z,136
2018-03-25T02:43:59.240Z,136
2018-03-25T02:44:11.425Z,136
2018-03-25T02:44:23.584Z,136
2018-03-25T02:44:35.736Z,136
2018-03-25T02:44:48.093Z,136
2018-03-25T02:45:00.270Z,136
2018-03-25T02:45:12.448Z,136
2018-03-25T02:45:24.602Z,136
2018-03-25T02:45:36.784Z,136
2018-03-25T02:45:48.963Z,136
2018-03-25T02:46:01.147Z,136
2018-03-25T02:46:13.402Z,136
2018-03-25T02:46:25.557Z,136
2018-03-25T02:46:37.738Z,136
2018-03-25T02:46:49.905Z,136
2018-03-25T02:47:02.094Z,136
2018-03-25T02:47:14.303Z,136
2018-03-25T02:47:26.482Z,136
2018-03-25T02:47:38.715Z,136
2018-03-25T02:47:50.852Z,136
2018-03-25T02:48:03.428Z,136
2018-03-25T02:48:15.580Z,136
2018-03-25T02:48:27.863Z,136
2018-03-25T02:48:40.080Z,136
2018-03-25T02:48:52.249Z,136
2018-03-25T02:49:04.416Z,136
2018-03-25T02:49:16.600Z,136